sensor_id;sensor_type;location;lat;lon;timestamp;pressure;altitude;pressure_sealevel;temperature;humidity
75972;BME280;64651;47.540;19.088;2023-02-28T00:00:36;101575.44;;;1.04;57.56
75972;BME280;64651;47.540;19.088;2023-02-28T00:05:39;101578.16;;;1.19;57.81
75972;BME280;64651;47.540;19.088;2023-02-28T00:10:41;101580.38;;;1.30;57.52
75972;BME280;64651;47.540;19.088;2023-02-28T00:15:43;101585.44;;;1.18;57.34
75972;BME280;64651;47.540;19.088;2023-02-28T00:20:47;101576.00;;;1.14;56.95
75972;BME280;64651;47.540;19.088;2023-02-28T00:25:49;101602.31;;;1.50;57.14
75972;BME280;64651;47.540;19.088;2023-02-28T00:30:52;101606.81;;;1.43;56.66
75972;BME280;64651;47.540;19.088;2023-02-28T00:36:05;101609.66;;;1.71;55.87
75972;BME280;64651;47.540;19.088;2023-02-28T00:41:08;101609.50;;;1.57;57.02
75972;BME280;64651;47.540;19.088;2023-02-28T00:46:11;101593.72;;;1.46;57.50
75972;BME280;64651;47.540;19.088;2023-02-28T00:51:13;101604.19;;;1.35;57.50
75972;BME280;64651;47.540;19.088;2023-02-28T00:56:15;101612.69;;;1.46;57.31
75972;BME280;64651;47.540;19.088;2023-02-28T01:01:17;101618.72;;;1.63;57.02
75972;BME280;64651;47.540;19.088;2023-02-28T01:06:19;101601.69;;;1.69;57.38
75972;BME280;64651;47.540;19.088;2023-02-28T01:11:21;101622.88;;;1.80;56.80
75972;BME280;64651;47.540;19.088;2023-02-28T01:16:23;101623.41;;;1.69;56.14
75972;BME280;64651;47.540;19.088;2023-02-28T01:21:26;101611.22;;;1.65;56.48
75972;BME280;64651;47.540;19.088;2023-02-28T01:26:29;101606.97;;;1.56;56.40
75972;BME280;64651;47.540;19.088;2023-02-28T01:31:31;101615.28;;;1.54;56.81
75972;BME280;64651;47.540;19.088;2023-02-28T01:36:33;101616.97;;;1.55;57.15
75972;BME280;64651;47.540;19.088;2023-02-28T01:41:35;101625.41;;;1.46;57.32
75972;BME280;64651;47.540;19.088;2023-02-28T01:46:38;101628.00;;;1.54;56.91
75972;BME280;64651;47.540;19.088;2023-02-28T01:51:54;101618.84;;;1.55;56.28
75972;BME280;64651;47.540;19.088;2023-02-28T01:57:05;101613.91;;;1.44;56.43
75972;BME280;64651;47.540;19.088;2023-02-28T02:02:10;101612.63;;;1.40;56.64
75972;BME280;64651;47.540;19.088;2023-02-28T02:07:13;101617.66;;;1.43;56.95
75972;BME280;64651;47.540;19.088;2023-02-28T02:12:29;101611.53;;;1.55;56.82
75972;BME280;64651;47.540;19.088;2023-02-28T02:18:05;101612.91;;;1.66;56.36
75972;BME280;64651;47.540;19.088;2023-02-28T02:23:26;101617.41;;;1.59;56.48
75972;BME280;64651;47.540;19.088;2023-02-28T02:39:49;101605.75;;;1.58;56.72
75972;BME280;64651;47.540;19.088;2023-02-28T02:45:22;101600.34;;;1.58;56.81
75972;BME280;64651;47.540;19.088;2023-02-28T02:50:33;101602.03;;;1.81;57.10
75972;BME280;64651;47.540;19.088;2023-02-28T02:55:41;101616.94;;;1.70;56.49
75972;BME280;64651;47.540;19.088;2023-02-28T03:00:48;101599.00;;;1.54;56.88
75972;BME280;64651;47.540;19.088;2023-02-28T03:05:52;101603.03;;;1.58;57.13
75972;BME280;64651;47.540;19.088;2023-02-28T03:11:00;101611.53;;;1.55;57.68
75972;BME280;64651;47.540;19.088;2023-02-28T03:26:29;101626.03;;;1.48;57.93
75972;BME280;64651;47.540;19.088;2023-02-28T03:31:41;101624.94;;;1.42;57.27
75972;BME280;64651;47.540;19.088;2023-02-28T03:36:48;101622.22;;;1.42;56.80
75972;BME280;64651;47.540;19.088;2023-02-28T03:42:07;101612.22;;;1.43;56.32
75972;BME280;64651;47.540;19.088;2023-02-28T03:47:16;101625.94;;;1.56;55.80
75972;BME280;64651;47.540;19.088;2023-02-28T03:52:23;101625.94;;;1.56;55.40
75972;BME280;64651;47.540;19.088;2023-02-28T04:03:06;101626.87;;;1.63;55.15
75972;BME280;64651;47.540;19.088;2023-02-28T04:08:08;101623.00;;;1.72;54.81
75972;BME280;64651;47.540;19.088;2023-02-28T04:13:11;101617.72;;;1.85;54.41
75972;BME280;64651;47.540;19.088;2023-02-28T04:18:13;101617.66;;;1.79;53.79
75972;BME280;64651;47.540;19.088;2023-02-28T04:23:15;101618.03;;;1.76;53.63
75972;BME280;64651;47.540;19.088;2023-02-28T04:28:17;101617.56;;;1.72;53.63
75972;BME280;64651;47.540;19.088;2023-02-28T04:33:19;101584.84;;;1.74;53.25
75972;BME280;64651;47.540;19.088;2023-02-28T04:38:21;101585.50;;;1.76;52.55
75972;BME280;64651;47.540;19.088;2023-02-28T04:43:23;101606.03;;;1.85;52.38
75972;BME280;64651;47.540;19.088;2023-02-28T04:48:28;101598.22;;;1.75;51.88
75972;BME280;64651;47.540;19.088;2023-02-28T04:53:31;101611.38;;;1.78;51.97
75972;BME280;64651;47.540;19.088;2023-02-28T04:58:34;101600.78;;;1.83;52.17
75972;BME280;64651;47.540;19.088;2023-02-28T05:03:36;101602.87;;;1.81;52.05
75972;BME280;64651;47.540;19.088;2023-02-28T05:08:39;101592.97;;;1.74;51.56
75972;BME280;64651;47.540;19.088;2023-02-28T05:13:41;101604.91;;;1.79;51.75
75972;BME280;64651;47.540;19.088;2023-02-28T05:18:44;101611.59;;;1.77;51.77
75972;BME280;64651;47.540;19.088;2023-02-28T05:23:46;101601.09;;;1.74;52.19
75972;BME280;64651;47.540;19.088;2023-02-28T05:28:49;101599.34;;;1.66;52.66
75972;BME280;64651;47.540;19.088;2023-02-28T05:33:51;101618.50;;;1.79;52.42
75972;BME280;64651;47.540;19.088;2023-02-28T05:38:53;101617.06;;;1.83;52.74
75972;BME280;64651;47.540;19.088;2023-02-28T05:43:57;101619.94;;;1.60;52.21
75972;BME280;64651;47.540;19.088;2023-02-28T05:48:59;101625.06;;;1.70;52.44
75972;BME280;64651;47.540;19.088;2023-02-28T05:54:02;101625.16;;;1.77;52.41
75972;BME280;64651;47.540;19.088;2023-02-28T05:59:05;101629.22;;;1.87;51.83
75972;BME280;64651;47.540;19.088;2023-02-28T06:04:09;101634.84;;;1.86;52.00
75972;BME280;64651;47.540;19.088;2023-02-28T06:09:26;101639.75;;;1.97;51.75
75972;BME280;64651;47.540;19.088;2023-02-28T06:14:28;101627.88;;;1.98;51.28
75972;BME280;64651;47.540;19.088;2023-02-28T06:19:30;101640.56;;;2.12;50.91
75972;BME280;64651;47.540;19.088;2023-02-28T06:24:33;101650.09;;;2.08;50.34
75972;BME280;64651;47.540;19.088;2023-02-28T06:29:35;101637.31;;;2.02;50.07
75972;BME280;64651;47.540;19.088;2023-02-28T06:34:37;101640.63;;;2.19;49.83
75972;BME280;64651;47.540;19.088;2023-02-28T06:39:39;101644.09;;;2.34;49.38
75972;BME280;64651;47.540;19.088;2023-02-28T06:44:41;101638.72;;;2.40;48.49
75972;BME280;64651;47.540;19.088;2023-02-28T06:49:45;101658.94;;;2.87;48.39
75972;BME280;64651;47.540;19.088;2023-02-28T06:54:47;101669.00;;;2.87;48.11
75972;BME280;64651;47.540;19.088;2023-02-28T06:59:49;101667.13;;;2.94;47.47
75972;BME280;64651;47.540;19.088;2023-02-28T07:04:51;101660.75;;;3.08;47.52
75972;BME280;64651;47.540;19.088;2023-02-28T07:09:54;101649.31;;;3.19;47.08
75972;BME280;64651;47.540;19.088;2023-02-28T07:14:56;101665.66;;;3.66;46.32
75972;BME280;64651;47.540;19.088;2023-02-28T07:19:58;101671.00;;;3.88;45.80
75972;BME280;64651;47.540;19.088;2023-02-28T07:25:01;101682.38;;;4.18;44.71
75972;BME280;64651;47.540;19.088;2023-02-28T07:30:03;101669.56;;;4.05;44.72
75972;BME280;64651;47.540;19.088;2023-02-28T07:35:06;101667.72;;;4.19;44.58
75972;BME280;64651;47.540;19.088;2023-02-28T07:40:10;101691.22;;;4.26;44.06
75972;BME280;64651;47.540;19.088;2023-02-28T07:45:15;101668.38;;;4.40;43.84
75972;BME280;64651;47.540;19.088;2023-02-28T07:50:17;101689.75;;;4.37;43.82
75972;BME280;64651;47.540;19.088;2023-02-28T07:55:20;101696.69;;;4.72;43.28
75972;BME280;64651;47.540;19.088;2023-02-28T08:00:22;101690.78;;;4.36;44.14
75972;BME280;64651;47.540;19.088;2023-02-28T08:05:25;101686.84;;;4.65;43.41
75972;BME280;64651;47.540;19.088;2023-02-28T08:10:27;101689.12;;;5.01;42.73
75972;BME280;64651;47.540;19.088;2023-02-28T08:15:29;101685.97;;;5.81;41.15
75972;BME280;64651;47.540;19.088;2023-02-28T08:20:34;101686.88;;;5.62;40.63
75972;BME280;64651;47.540;19.088;2023-02-28T08:25:36;101691.75;;;6.11;40.20
75972;BME280;64651;47.540;19.088;2023-02-28T08:30:39;101686.09;;;6.44;39.20
75972;BME280;64651;47.540;19.088;2023-02-28T08:35:42;101667.91;;;6.56;38.59
75972;BME280;64651;47.540;19.088;2023-02-28T08:40:45;101669.44;;;6.52;38.40
75972;BME280;64651;47.540;19.088;2023-02-28T08:45:47;101677.13;;;5.92;39.45
75972;BME280;64651;47.540;19.088;2023-02-28T08:50:59;101686.75;;;6.71;38.16
75972;BME280;64651;47.540;19.088;2023-02-28T08:56:12;101666.34;;;6.42;38.25
75972;BME280;64651;47.540;19.088;2023-02-28T09:01:35;101678.00;;;7.66;38.46
75972;BME280;64651;47.540;19.088;2023-02-28T09:06:38;101676.16;;;7.79;37.19
75972;BME280;64651;47.540;19.088;2023-02-28T09:11:40;101659.91;;;8.25;35.68
75972;BME280;64651;47.540;19.088;2023-02-28T09:16:42;101662.69;;;11.28;30.39
75972;BME280;64651;47.540;19.088;2023-02-28T09:21:45;101658.25;;;12.63;28.36
75972;BME280;64651;47.540;19.088;2023-02-28T09:26:47;101667.41;;;12.69;29.50
75972;BME280;64651;47.540;19.088;2023-02-28T09:32:05;101661.97;;;11.33;29.31
75972;BME280;64651;47.540;19.088;2023-02-28T09:37:07;101673.69;;;11.45;30.93
75972;BME280;64651;47.540;19.088;2023-02-28T09:42:25;101684.09;;;9.86;32.91
75972;BME280;64651;47.540;19.088;2023-02-28T09:47:33;101683.50;;;10.52;32.75
75972;BME280;64651;47.540;19.088;2023-02-28T09:52:36;101675.88;;;10.14;32.85
75972;BME280;64651;47.540;19.088;2023-02-28T09:57:39;101676.91;;;9.97;32.96
75972;BME280;64651;47.540;19.088;2023-02-28T10:08:33;101662.50;;;11.52;30.91
75972;BME280;64651;47.540;19.088;2023-02-28T10:13:52;101650.72;;;11.78;29.88
75972;BME280;64651;47.540;19.088;2023-02-28T10:19:03;101657.66;;;11.42;29.94
75972;BME280;64651;47.540;19.088;2023-02-28T10:29:15;101664.03;;;15.16;26.11
75972;BME280;64651;47.540;19.088;2023-02-28T10:34:17;101650.66;;;15.43;25.57
75972;BME280;64651;47.540;19.088;2023-02-28T10:39:45;101627.53;;;16.32;23.31
75972;BME280;64651;47.540;19.088;2023-02-28T10:44:48;101639.41;;;16.82;23.41
75972;BME280;64651;47.540;19.088;2023-02-28T10:49:50;101631.84;;;17.16;23.17
75972;BME280;64651;47.540;19.088;2023-02-28T10:55:14;101616.78;;;15.51;24.47
75972;BME280;64651;47.540;19.088;2023-02-28T11:00:22;101603.13;;;16.24;25.20
75972;BME280;64651;47.540;19.088;2023-02-28T11:05:29;101621.62;;;14.59;26.27
75972;BME280;64651;47.540;19.088;2023-02-28T11:10:32;101622.72;;;12.72;29.39
75972;BME280;64651;47.540;19.088;2023-02-28T11:15:36;101618.19;;;12.02;30.42
75972;BME280;64651;47.540;19.088;2023-02-28T11:20:39;101610.31;;;11.67;31.25
75972;BME280;64651;47.540;19.088;2023-02-28T11:25:47;101606.50;;;11.08;32.32
75972;BME280;64651;47.540;19.088;2023-02-28T11:36:15;101600.94;;;11.68;31.24
75972;BME280;64651;47.540;19.088;2023-02-28T11:41:50;101594.28;;;10.65;33.31
75972;BME280;64651;47.540;19.088;2023-02-28T11:47:47;101607.50;;;11.84;31.16
75972;BME280;64651;47.540;19.088;2023-02-28T11:52:48;101592.56;;;11.36;32.62
75972;BME280;64651;47.540;19.088;2023-02-28T11:58:11;101599.50;;;12.36;32.08
75972;BME280;64651;47.540;19.088;2023-02-28T12:08:47;101584.97;;;12.50;30.61
75972;BME280;64651;47.540;19.088;2023-02-28T12:19:39;101573.44;;;16.53;25.05
75972;BME280;64651;47.540;19.088;2023-02-28T12:30:21;101550.22;;;15.51;26.53
75972;BME280;64651;47.540;19.088;2023-02-28T12:35:28;101548.22;;;18.49;23.21
75972;BME280;64651;47.540;19.088;2023-02-28T12:40:54;101541.13;;;16.68;25.12
75972;BME280;64651;47.540;19.088;2023-02-28T12:46:10;101529.31;;;15.79;25.74
75972;BME280;64651;47.540;19.088;2023-02-28T12:51:15;101528.25;;;17.48;23.89
75972;BME280;64651;47.540;19.088;2023-02-28T12:56:43;101531.91;;;17.01;24.39
75972;BME280;64651;47.540;19.088;2023-02-28T13:11:55;101526.00;;;16.11;26.19
75972;BME280;64651;47.540;19.088;2023-02-28T13:27:37;101526.50;;;13.53;30.07
75972;BME280;64651;47.540;19.088;2023-02-28T13:32:41;101513.75;;;13.42;30.75
75972;BME280;64651;47.540;19.088;2023-02-28T13:37:44;101519.91;;;13.07;30.75
75972;BME280;64651;47.540;19.088;2023-02-28T13:42:48;101493.56;;;15.03;27.74
75972;BME280;64651;47.540;19.088;2023-02-28T13:48:00;101494.78;;;14.67;28.88
75972;BME280;64651;47.540;19.088;2023-02-28T14:09:29;101475.53;;;19.32;21.65
75972;BME280;64651;47.540;19.088;2023-02-28T14:19:47;101464.81;;;12.80;30.17
75972;BME280;64651;47.540;19.088;2023-02-28T14:36:01;101484.06;;;10.22;35.95
75972;BME280;64651;47.540;19.088;2023-02-28T14:41:14;101480.91;;;9.68;36.72
75972;BME280;64651;47.540;19.088;2023-02-28T14:46:18;101462.38;;;9.18;38.25
75972;BME280;64651;47.540;19.088;2023-02-28T14:51:22;101468.97;;;8.54;39.19
75972;BME280;64651;47.540;19.088;2023-02-28T14:56:37;101464.56;;;8.65;39.52
75972;BME280;64651;47.540;19.088;2023-02-28T15:01:40;101477.75;;;8.79;39.70
75972;BME280;64651;47.540;19.088;2023-02-28T15:06:42;101476.72;;;8.69;39.82
75972;BME280;64651;47.540;19.088;2023-02-28T15:11:49;101459.56;;;8.38;40.45
75972;BME280;64651;47.540;19.088;2023-02-28T15:16:57;101481.63;;;8.43;41.18
75972;BME280;64651;47.540;19.088;2023-02-28T15:22:04;101490.56;;;8.39;41.14
75972;BME280;64651;47.540;19.088;2023-02-28T15:27:34;101490.28;;;8.17;41.68
75972;BME280;64651;47.540;19.088;2023-02-28T15:32:41;101487.78;;;8.04;42.33
75972;BME280;64651;47.540;19.088;2023-02-28T15:37:53;101482.25;;;7.81;42.53
75972;BME280;64651;47.540;19.088;2023-02-28T15:43:12;101473.94;;;7.57;43.19
75972;BME280;64651;47.540;19.088;2023-02-28T15:48:24;101482.59;;;7.43;44.51
75972;BME280;64651;47.540;19.088;2023-02-28T15:53:32;101473.91;;;7.16;45.54
75972;BME280;64651;47.540;19.088;2023-02-28T15:58:35;101474.22;;;7.08;45.83
75972;BME280;64651;47.540;19.088;2023-02-28T16:03:42;101481.63;;;6.89;46.77
75972;BME280;64651;47.540;19.088;2023-02-28T16:08:45;101484.25;;;6.77;46.68
75972;BME280;64651;47.540;19.088;2023-02-28T16:13:54;101484.87;;;6.61;47.42
75972;BME280;64651;47.540;19.088;2023-02-28T16:18:56;101483.81;;;6.62;47.80
75972;BME280;64651;47.540;19.088;2023-02-28T16:23:58;101490.56;;;6.60;48.01
75972;BME280;64651;47.540;19.088;2023-02-28T16:29:01;101472.56;;;6.34;48.44
75972;BME280;64651;47.540;19.088;2023-02-28T16:34:04;101493.25;;;6.23;48.97
75972;BME280;64651;47.540;19.088;2023-02-28T16:39:07;101481.22;;;6.49;51.14
75972;BME280;64651;47.540;19.088;2023-02-28T16:44:19;101491.72;;;6.52;49.71
75972;BME280;64651;47.540;19.088;2023-02-28T16:49:23;101510.09;;;6.20;49.26
75972;BME280;64651;47.540;19.088;2023-02-28T16:54:26;101508.75;;;6.04;49.84
75972;BME280;64651;47.540;19.088;2023-02-28T16:59:28;101518.63;;;6.05;50.12
75972;BME280;64651;47.540;19.088;2023-02-28T17:04:31;101524.63;;;5.89;50.74
75972;BME280;64651;47.540;19.088;2023-02-28T17:09:37;101515.25;;;5.79;51.26
75972;BME280;64651;47.540;19.088;2023-02-28T17:14:44;101534.72;;;5.89;51.14
75972;BME280;64651;47.540;19.088;2023-02-28T17:19:47;101535.34;;;5.84;51.93
75972;BME280;64651;47.540;19.088;2023-02-28T17:24:52;101528.44;;;5.82;52.24
75972;BME280;64651;47.540;19.088;2023-02-28T17:29:57;101528.94;;;5.72;53.64
75972;BME280;64651;47.540;19.088;2023-02-28T17:35:00;101517.22;;;5.65;53.28
75972;BME280;64651;47.540;19.088;2023-02-28T17:40:02;101524.38;;;5.59;53.58
75972;BME280;64651;47.540;19.088;2023-02-28T17:45:05;101522.06;;;5.56;53.57
75972;BME280;64651;47.540;19.088;2023-02-28T17:50:14;101527.06;;;5.66;53.67
75972;BME280;64651;47.540;19.088;2023-02-28T17:55:16;101520.38;;;5.62;53.57
75972;BME280;64651;47.540;19.088;2023-02-28T18:00:21;101540.69;;;5.72;53.71
75972;BME280;64651;47.540;19.088;2023-02-28T18:05:25;101532.13;;;5.62;53.55
75972;BME280;64651;47.540;19.088;2023-02-28T18:10:28;101524.81;;;5.56;54.04
75972;BME280;64651;47.540;19.088;2023-02-28T18:15:35;101554.59;;;5.64;54.21
75972;BME280;64651;47.540;19.088;2023-02-28T18:20:37;101504.75;;;5.38;54.25
75972;BME280;64651;47.540;19.088;2023-02-28T18:25:39;101551.25;;;5.56;54.25
75972;BME280;64651;47.540;19.088;2023-02-28T18:30:42;101553.41;;;5.54;54.98
75972;BME280;64651;47.540;19.088;2023-02-28T18:35:54;101540.38;;;5.49;54.48
75972;BME280;64651;47.540;19.088;2023-02-28T18:40:59;101547.97;;;5.47;54.73
75972;BME280;64651;47.540;19.088;2023-02-28T18:46:07;101550.44;;;5.55;55.11
75972;BME280;64651;47.540;19.088;2023-02-28T18:51:16;101563.03;;;5.56;55.12
75972;BME280;64651;47.540;19.088;2023-02-28T18:56:21;101563.28;;;5.55;54.58
75972;BME280;64651;47.540;19.088;2023-02-28T19:01:28;101561.75;;;5.59;54.54
75972;BME280;64651;47.540;19.088;2023-02-28T19:06:34;101553.41;;;5.54;54.50
75972;BME280;64651;47.540;19.088;2023-02-28T19:11:38;101559.69;;;5.54;54.64
75972;BME280;64651;47.540;19.088;2023-02-28T19:16:41;101527.88;;;5.35;54.42
75972;BME280;64651;47.540;19.088;2023-02-28T19:21:43;101554.09;;;5.43;54.77
75972;BME280;64651;47.540;19.088;2023-02-28T19:26:46;101557.25;;;5.40;54.68
75972;BME280;64651;47.540;19.088;2023-02-28T19:31:48;101564.59;;;5.39;54.67
75972;BME280;64651;47.540;19.088;2023-02-28T19:36:50;101540.75;;;5.21;54.82
75972;BME280;64651;47.540;19.088;2023-02-28T19:41:53;101557.62;;;5.43;54.52
75972;BME280;64651;47.540;19.088;2023-02-28T19:46:55;101553.47;;;5.41;55.21
75972;BME280;64651;47.540;19.088;2023-02-28T19:51:58;101556.38;;;5.46;55.01
75972;BME280;64651;47.540;19.088;2023-02-28T19:57:04;101556.53;;;5.51;55.31
75972;BME280;64651;47.540;19.088;2023-02-28T20:02:15;101563.66;;;5.58;55.27
75972;BME280;64651;47.540;19.088;2023-02-28T20:07:18;101542.41;;;5.67;58.29
75972;BME280;64651;47.540;19.088;2023-02-28T20:12:21;101543.03;;;6.00;58.70
75972;BME280;64651;47.540;19.088;2023-02-28T20:17:27;101492.25;;;5.86;57.51
75972;BME280;64651;47.540;19.088;2023-02-28T20:22:29;101562.50;;;6.35;58.83
75972;BME280;64651;47.540;19.088;2023-02-28T20:27:31;101552.47;;;6.29;56.75
75972;BME280;64651;47.540;19.088;2023-02-28T20:32:35;101543.72;;;6.21;56.20
75972;BME280;64651;47.540;19.088;2023-02-28T20:37:40;101547.91;;;5.92;56.08
75972;BME280;64651;47.540;19.088;2023-02-28T20:42:42;101557.28;;;6.09;56.13
75972;BME280;64651;47.540;19.088;2023-02-28T20:47:44;101554.88;;;6.19;55.94
75972;BME280;64651;47.540;19.088;2023-02-28T20:52:46;101551.22;;;6.00;55.23
75972;BME280;64651;47.540;19.088;2023-02-28T20:57:49;101544.72;;;6.01;55.00
75972;BME280;64651;47.540;19.088;2023-02-28T21:02:51;101551.56;;;5.79;55.06
75972;BME280;64651;47.540;19.088;2023-02-28T21:07:53;101533.59;;;5.65;55.19
75972;BME280;64651;47.540;19.088;2023-02-28T21:12:55;101554.97;;;5.68;55.28
75972;BME280;64651;47.540;19.088;2023-02-28T21:17:58;101547.66;;;5.62;55.34
75972;BME280;64651;47.540;19.088;2023-02-28T21:23:01;101536.19;;;5.53;55.46
75972;BME280;64651;47.540;19.088;2023-02-28T21:28:03;101546.88;;;5.55;55.46
75972;BME280;64651;47.540;19.088;2023-02-28T21:33:05;101546.09;;;5.48;55.51
75972;BME280;64651;47.540;19.088;2023-02-28T21:38:08;101540.44;;;5.43;55.81
75972;BME280;64651;47.540;19.088;2023-02-28T21:43:10;101535.78;;;5.43;55.86
75972;BME280;64651;47.540;19.088;2023-02-28T21:48:13;101548.37;;;5.44;55.96
75972;BME280;64651;47.540;19.088;2023-02-28T21:53:15;101538.34;;;5.38;56.21
75972;BME280;64651;47.540;19.088;2023-02-28T21:58:18;101531.19;;;5.44;55.88
75972;BME280;64651;47.540;19.088;2023-02-28T22:03:20;101528.09;;;5.34;55.69
75972;BME280;64651;47.540;19.088;2023-02-28T22:08:22;101540.44;;;5.43;55.52
75972;BME280;64651;47.540;19.088;2023-02-28T22:13:24;101522.44;;;5.35;55.55
75972;BME280;64651;47.540;19.088;2023-02-28T22:18:26;101526.41;;;5.32;55.67
75972;BME280;64651;47.540;19.088;2023-02-28T22:23:29;101543.59;;;5.40;55.78
75972;BME280;64651;47.540;19.088;2023-02-28T22:28:32;101534.75;;;5.44;56.58
75972;BME280;64651;47.540;19.088;2023-02-28T22:33:34;101544.53;;;5.58;56.01
75972;BME280;64651;47.540;19.088;2023-02-28T22:38:37;101540.31;;;5.62;56.73
75972;BME280;64651;47.540;19.088;2023-02-28T22:43:40;101551.69;;;5.59;55.74
75972;BME280;64651;47.540;19.088;2023-02-28T22:48:42;101548.13;;;5.59;55.69
75972;BME280;64651;47.540;19.088;2023-02-28T22:53:46;101542.66;;;5.59;55.65
75972;BME280;64651;47.540;19.088;2023-02-28T22:58:55;101551.22;;;5.62;55.53
75972;BME280;64651;47.540;19.088;2023-02-28T23:03:59;101551.91;;;5.58;55.66
75972;BME280;64651;47.540;19.088;2023-02-28T23:09:05;101529.28;;;5.44;55.86
75972;BME280;64651;47.540;19.088;2023-02-28T23:14:08;101542.19;;;5.62;56.25
75972;BME280;64651;47.540;19.088;2023-02-28T23:19:23;101539.44;;;5.68;55.90
75972;BME280;64651;47.540;19.088;2023-02-28T23:24:29;101540.97;;;5.58;56.24
75972;BME280;64651;47.540;19.088;2023-02-28T23:29:32;101527.19;;;5.46;56.44
75972;BME280;64651;47.540;19.088;2023-02-28T23:34:35;101538.22;;;5.64;56.82
75972;BME280;64651;47.540;19.088;2023-02-28T23:39:37;101534.47;;;5.59;56.44
75972;BME280;64651;47.540;19.088;2023-02-28T23:44:39;101532.81;;;5.51;56.44
75972;BME280;64651;47.540;19.088;2023-02-28T23:49:41;101526.38;;;5.39;57.00
75972;BME280;64651;47.540;19.088;2023-02-28T23:54:44;101534.50;;;5.52;57.27
75972;BME280;64651;47.540;19.088;2023-02-28T23:59:47;101516.13;;;5.35;57.30
